Massena, NY

11:41 AM EST on December 05, 2016 (GMT -0500)
Massena International-Richards | | Change Station

Elev 213 ft 44.94 °N, 74.85 °W | Updated 4 minutes ago

Light Snow
Light Snow Mist
30 °F
Feels Like 26 °F
N
4
Wind Variable Wind from ENE

Today
High -- | Low -- °F
--% Chance of Precip.
Yesterday
High -- | Low -- °F
Precip. -- in
Pressure 29.83 in
Visibility 2.0 miles
Clouds Few 600 ft
Overcast 1600 ft
Windchill 26 °F
Dew Point 27 °F
Humidity 88%
Rainfall 0.19 in
Snow Depth Not available.
7:22 AM 4:18 PM
Waxing Crescent, 33% visible
SPECI KMSS 051637Z AUTO 06003KT 2SM -SN BR FEW006 OVC016 M01/M03 A2983 RMK AO2 P0000 T10111028
Pressure 29.83 in
Visibility 2.0 miles
Clouds Few 600 ft
Overcast 1600 ft
Windchill 26 °F
Dew Point 27 °F
Humidity 88%
Rainfall 0.19 in
Snow Depth Not available.
7:22 AM 4:18 PM
Waxing Crescent, 33% visible
SPECI KMSS 051637Z AUTO 06003KT 2SM -SN BR FEW006 OVC016 M01/M03 A2983 RMK AO2 P0000 T10111028

10-Day Weather Forecast

Almanac

Astronomy

Dec. 05, 2016 Rise Set
Actual Time
Civil Twilight
Nautical Twilight
Astronomical Twilight
Moon
Length of Visible Light
Length of Day
Tomorrow will be .
, % of the Moon is Illuminated

Today's Extremes

State Highs State Lows

Community

WunderPhotos

Upload Photos

1,955,833 photos uploaded!

WunderBlog® & News

Nearby

Air Quality

  Air Quality AQ Index Pollutant
Not available.

Snow Depth

Station Depth Elevation

Earthquake Activity

City Distance Mag. Time & Date
Minimum magnitude displayed is 2.5.

Coastal Water Temperatures

Place Temperature

Stations

Nearby Weather Stations

Station Location Temp. Windchill Dew Point Humidity Wind Precip. Elev Updated Type
                   

Watches & Warnings

There are currently no watches in effect.